sensor_id;sensor_type;location;lat;lon;timestamp;P1;durP1;ratioP1;P2;durP2;ratioP2
22070;SDS011;11200;51.488;6.668;2022-12-08T00:00:44;6.55;;;5.30;;
22070;SDS011;11200;51.488;6.668;2022-12-08T00:03:10;6.75;;;5.20;;
22070;SDS011;11200;51.488;6.668;2022-12-08T00:05:36;6.93;;;5.35;;
22070;SDS011;11200;51.488;6.668;2022-12-08T00:08:21;6.18;;;5.57;;
22070;SDS011;11200;51.488;6.668;2022-12-08T00:11:12;6.22;;;5.07;;
22070;SDS011;11200;51.488;6.668;2022-12-08T00:13:38;5.45;;;4.95;;
22070;SDS011;11200;51.488;6.668;2022-12-08T00:16:04;7.07;;;5.68;;
22070;SDS011;11200;51.488;6.668;2022-12-08T00:18:30;7.13;;;5.50;;
22070;SDS011;11200;51.488;6.668;2022-12-08T00:20:56;7.00;;;5.45;;
22070;SDS011;11200;51.488;6.668;2022-12-08T00:23:22;5.40;;;4.90;;
22070;SDS011;11200;51.488;6.668;2022-12-08T00:25:47;5.90;;;5.30;;
22070;SDS011;11200;51.488;6.668;2022-12-08T00:28:13;5.93;;;5.00;;
22070;SDS011;11200;51.488;6.668;2022-12-08T00:30:39;5.97;;;5.10;;
22070;SDS011;11200;51.488;6.668;2022-12-08T00:33:05;5.90;;;5.07;;
22070;SDS011;11200;51.488;6.668;2022-12-08T00:35:31;6.95;;;5.10;;
22070;SDS011;11200;51.488;6.668;2022-12-08T00:37:56;6.75;;;5.43;;
22070;SDS011;11200;51.488;6.668;2022-12-08T00:40:22;6.10;;;5.25;;
22070;SDS011;11200;51.488;6.668;2022-12-08T00:42:47;5.75;;;5.18;;
22070;SDS011;11200;51.488;6.668;2022-12-08T00:45:13;5.05;;;4.53;;
22070;SDS011;11200;51.488;6.668;2022-12-08T00:47:39;6.70;;;5.32;;
22070;SDS011;11200;51.488;6.668;2022-12-08T00:50:04;6.72;;;5.50;;
22070;SDS011;11200;51.488;6.668;2022-12-08T00:52:31;5.35;;;4.82;;
22070;SDS011;11200;51.488;6.668;2022-12-08T00:54:56;5.63;;;5.03;;
22070;SDS011;11200;51.488;6.668;2022-12-08T00:57:22;5.40;;;4.68;;
22070;SDS011;11200;51.488;6.668;2022-12-08T00:59:47;5.22;;;4.72;;
22070;SDS011;11200;51.488;6.668;2022-12-08T01:02:13;5.75;;;5.22;;
22070;SDS011;11200;51.488;6.668;2022-12-08T01:04:39;6.10;;;5.22;;
22070;SDS011;11200;51.488;6.668;2022-12-08T01:07:05;6.95;;;5.25;;
22070;SDS011;11200;51.488;6.668;2022-12-08T01:09:31;5.72;;;5.10;;
22070;SDS011;11200;51.488;6.668;2022-12-08T01:11:57;6.00;;;5.40;;
22070;SDS011;11200;51.488;6.668;2022-12-08T01:14:22;6.22;;;5.63;;
22070;SDS011;11200;51.488;6.668;2022-12-08T01:16:48;6.40;;;5.35;;
22070;SDS011;11200;51.488;6.668;2022-12-08T01:19:14;5.47;;;4.95;;
22070;SDS011;11200;51.488;6.668;2022-12-08T01:21:41;7.05;;;5.75;;
22070;SDS011;11200;51.488;6.668;2022-12-08T01:24:11;6.22;;;5.63;;
22070;SDS011;11200;51.488;6.668;2022-12-08T01:26:38;6.40;;;5.30;;
22070;SDS011;11200;51.488;6.668;2022-12-08T01:29:04;6.15;;;5.55;;
22070;SDS011;11200;51.488;6.668;2022-12-08T01:31:30;5.70;;;5.13;;
22070;SDS011;11200;51.488;6.668;2022-12-08T01:33:55;5.90;;;5.30;;
22070;SDS011;11200;51.488;6.668;2022-12-08T01:36:23;6.38;;;5.57;;
22070;SDS011;11200;51.488;6.668;2022-12-08T01:38:50;6.45;;;5.80;;
22070;SDS011;11200;51.488;6.668;2022-12-08T01:41:18;7.57;;;6.00;;
22070;SDS011;11200;51.488;6.668;2022-12-08T01:43:56;5.95;;;5.32;;
22070;SDS011;11200;51.488;6.668;2022-12-08T01:46:29;6.55;;;5.85;;
22070;SDS011;11200;51.488;6.668;2022-12-08T01:49:18;7.07;;;5.78;;
22070;SDS011;11200;51.488;6.668;2022-12-08T01:54:34;7.18;;;6.45;;
22070;SDS011;11200;51.488;6.668;2022-12-08T01:57:10;7.03;;;6.32;;
22070;SDS011;11200;51.488;6.668;2022-12-08T01:59:43;7.57;;;6.75;;
22070;SDS011;11200;51.488;6.668;2022-12-08T02:02:13;7.70;;;6.90;;
22070;SDS011;11200;51.488;6.668;2022-12-08T02:04:39;8.13;;;7.20;;
22070;SDS011;11200;51.488;6.668;2022-12-08T02:07:05;8.70;;;7.45;;
22070;SDS011;11200;51.488;6.668;2022-12-08T02:09:34;8.40;;;7.53;;
22070;SDS011;11200;51.488;6.668;2022-12-08T02:12:01;8.95;;;7.68;;
22070;SDS011;11200;51.488;6.668;2022-12-08T02:14:27;9.10;;;7.30;;
22070;SDS011;11200;51.488;6.668;2022-12-08T02:17:04;8.52;;;7.43;;
22070;SDS011;11200;51.488;6.668;2022-12-08T02:22:42;9.55;;;7.68;;
22070;SDS011;11200;51.488;6.668;2022-12-08T02:25:38;8.93;;;7.72;;
22070;SDS011;11200;51.488;6.668;2022-12-08T02:28:47;8.80;;;7.78;;
22070;SDS011;11200;51.488;6.668;2022-12-08T02:34:57;9.32;;;8.32;;
22070;SDS011;11200;51.488;6.668;2022-12-08T02:37:17;12.38;;;9.32;;
22070;SDS011;11200;51.488;6.668;2022-12-08T02:45:27;10.95;;;9.82;;
22070;SDS011;11200;51.488;6.668;2022-12-08T02:48:05;12.68;;;10.30;;
22070;SDS011;11200;51.488;6.668;2022-12-08T02:50:32;13.15;;;11.15;;
22070;SDS011;11200;51.488;6.668;2022-12-08T02:52:58;13.43;;;10.82;;
22070;SDS011;11200;51.488;6.668;2022-12-08T02:55:36;13.80;;;11.02;;
22070;SDS011;11200;51.488;6.668;2022-12-08T03:03:34;14.30;;;11.70;;
22070;SDS011;11200;51.488;6.668;2022-12-08T03:08:54;15.35;;;12.15;;
22070;SDS011;11200;51.488;6.668;2022-12-08T03:14:27;16.50;;;13.63;;
22070;SDS011;11200;51.488;6.668;2022-12-08T03:16:54;17.75;;;13.93;;
22070;SDS011;11200;51.488;6.668;2022-12-08T03:19:23;20.35;;;15.27;;
22070;SDS011;11200;51.488;6.668;2022-12-08T03:21:57;18.65;;;14.40;;
22070;SDS011;11200;51.488;6.668;2022-12-08T03:24:34;16.83;;;13.35;;
22070;SDS011;11200;51.488;6.668;2022-12-08T03:29:30;20.23;;;15.25;;
22070;SDS011;11200;51.488;6.668;2022-12-08T03:31:59;19.60;;;15.27;;
22070;SDS011;11200;51.488;6.668;2022-12-08T03:34:39;20.83;;;16.13;;
22070;SDS011;11200;51.488;6.668;2022-12-08T03:37:07;21.45;;;15.85;;
22070;SDS011;11200;51.488;6.668;2022-12-08T03:39:32;19.65;;;15.35;;
22070;SDS011;11200;51.488;6.668;2022-12-08T03:41:58;19.60;;;15.93;;
22070;SDS011;11200;51.488;6.668;2022-12-08T03:44:24;20.83;;;16.08;;
22070;SDS011;11200;51.488;6.668;2022-12-08T03:46:49;20.17;;;16.05;;
22070;SDS011;11200;51.488;6.668;2022-12-08T03:49:15;19.25;;;15.50;;
22070;SDS011;11200;51.488;6.668;2022-12-08T03:51:40;20.40;;;16.20;;
22070;SDS011;11200;51.488;6.668;2022-12-08T03:54:06;21.52;;;16.42;;
22070;SDS011;11200;51.488;6.668;2022-12-08T03:56:33;22.20;;;17.40;;
22070;SDS011;11200;51.488;6.668;2022-12-08T03:59:01;21.65;;;16.75;;
22070;SDS011;11200;51.488;6.668;2022-12-08T04:01:27;21.15;;;16.23;;
22070;SDS011;11200;51.488;6.668;2022-12-08T04:03:53;20.65;;;16.80;;
22070;SDS011;11200;51.488;6.668;2022-12-08T04:06:19;20.13;;;15.85;;
22070;SDS011;11200;51.488;6.668;2022-12-08T04:08:46;21.77;;;16.45;;
22070;SDS011;11200;51.488;6.668;2022-12-08T04:11:18;21.27;;;16.45;;
22070;SDS011;11200;51.488;6.668;2022-12-08T04:13:44;21.27;;;16.50;;
22070;SDS011;11200;51.488;6.668;2022-12-08T04:16:14;23.17;;;16.63;;
22070;SDS011;11200;51.488;6.668;2022-12-08T04:18:42;19.50;;;15.93;;
22070;SDS011;11200;51.488;6.668;2022-12-08T04:21:09;21.02;;;17.00;;
22070;SDS011;11200;51.488;6.668;2022-12-08T04:23:40;19.98;;;16.27;;
22070;SDS011;11200;51.488;6.668;2022-12-08T04:26:06;19.65;;;15.82;;
22070;SDS011;11200;51.488;6.668;2022-12-08T04:28:32;20.17;;;16.20;;
22070;SDS011;11200;51.488;6.668;2022-12-08T04:30:58;21.42;;;16.42;;
22070;SDS011;11200;51.488;6.668;2022-12-08T04:33:26;21.10;;;16.63;;
22070;SDS011;11200;51.488;6.668;2022-12-08T04:35:52;22.13;;;16.45;;
22070;SDS011;11200;51.488;6.668;2022-12-08T04:38:17;19.77;;;16.27;;
22070;SDS011;11200;51.488;6.668;2022-12-08T04:40:43;20.40;;;16.50;;
22070;SDS011;11200;51.488;6.668;2022-12-08T04:43:09;20.50;;;16.33;;
22070;SDS011;11200;51.488;6.668;2022-12-08T04:45:43;20.30;;;16.02;;
22070;SDS011;11200;51.488;6.668;2022-12-08T04:48:09;18.50;;;15.80;;
22070;SDS011;11200;51.488;6.668;2022-12-08T04:50:37;20.25;;;16.15;;
22070;SDS011;11200;51.488;6.668;2022-12-08T04:53:08;19.23;;;16.10;;
22070;SDS011;11200;51.488;6.668;2022-12-08T04:55:40;20.98;;;15.85;;
22070;SDS011;11200;51.488;6.668;2022-12-08T04:58:10;19.83;;;16.27;;
22070;SDS011;11200;51.488;6.668;2022-12-08T05:00:37;19.77;;;15.90;;
22070;SDS011;11200;51.488;6.668;2022-12-08T05:03:03;19.33;;;15.95;;
22070;SDS011;11200;51.488;6.668;2022-12-08T05:05:29;19.17;;;15.70;;
22070;SDS011;11200;51.488;6.668;2022-12-08T05:07:54;19.65;;;16.38;;
22070;SDS011;11200;51.488;6.668;2022-12-08T05:10:20;18.50;;;15.57;;
22070;SDS011;11200;51.488;6.668;2022-12-08T05:12:46;18.08;;;15.43;;
22070;SDS011;11200;51.488;6.668;2022-12-08T05:15:11;19.88;;;15.85;;
22070;SDS011;11200;51.488;6.668;2022-12-08T05:17:37;18.60;;;15.30;;
22070;SDS011;11200;51.488;6.668;2022-12-08T05:20:03;18.65;;;15.05;;
22070;SDS011;11200;51.488;6.668;2022-12-08T05:22:29;18.25;;;15.43;;
22070;SDS011;11200;51.488;6.668;2022-12-08T05:25:00;17.52;;;14.75;;
22070;SDS011;11200;51.488;6.668;2022-12-08T05:27:27;17.00;;;14.63;;
22070;SDS011;11200;51.488;6.668;2022-12-08T05:30:00;16.55;;;14.32;;
22070;SDS011;11200;51.488;6.668;2022-12-08T05:32:25;17.20;;;14.65;;
22070;SDS011;11200;51.488;6.668;2022-12-08T05:34:51;16.65;;;14.43;;
22070;SDS011;11200;51.488;6.668;2022-12-08T05:37:17;17.83;;;15.23;;
22070;SDS011;11200;51.488;6.668;2022-12-08T05:39:43;16.98;;;14.50;;
22070;SDS011;11200;51.488;6.668;2022-12-08T05:42:08;16.35;;;14.25;;
22070;SDS011;11200;51.488;6.668;2022-12-08T05:44:34;15.90;;;13.80;;
22070;SDS011;11200;51.488;6.668;2022-12-08T05:47:02;16.80;;;14.07;;
22070;SDS011;11200;51.488;6.668;2022-12-08T05:49:28;16.27;;;13.85;;
22070;SDS011;11200;51.488;6.668;2022-12-08T05:51:54;15.88;;;13.90;;
22070;SDS011;11200;51.488;6.668;2022-12-08T05:54:19;16.05;;;13.82;;
22070;SDS011;11200;51.488;6.668;2022-12-08T05:56:45;14.65;;;13.00;;
22070;SDS011;11200;51.488;6.668;2022-12-08T05:59:10;15.02;;;13.40;;
22070;SDS011;11200;51.488;6.668;2022-12-08T06:01:36;16.73;;;14.00;;
22070;SDS011;11200;51.488;6.668;2022-12-08T06:04:10;18.17;;;13.85;;
22070;SDS011;11200;51.488;6.668;2022-12-08T06:06:36;16.30;;;13.82;;
22070;SDS011;11200;51.488;6.668;2022-12-08T06:09:03;16.23;;;13.20;;
22070;SDS011;11200;51.488;6.668;2022-12-08T06:11:29;16.63;;;14.20;;
22070;SDS011;11200;51.488;6.668;2022-12-08T06:13:57;16.23;;;13.80;;
22070;SDS011;11200;51.488;6.668;2022-12-08T06:16:23;15.10;;;13.27;;
22070;SDS011;11200;51.488;6.668;2022-12-08T06:18:50;15.45;;;13.25;;
22070;SDS011;11200;51.488;6.668;2022-12-08T06:21:18;14.73;;;12.88;;
22070;SDS011;11200;51.488;6.668;2022-12-08T06:23:48;16.02;;;13.32;;
22070;SDS011;11200;51.488;6.668;2022-12-08T06:26:15;14.70;;;13.10;;
22070;SDS011;11200;51.488;6.668;2022-12-08T06:28:41;16.08;;;13.07;;
22070;SDS011;11200;51.488;6.668;2022-12-08T06:31:17;16.52;;;13.07;;
22070;SDS011;11200;51.488;6.668;2022-12-08T06:33:50;15.18;;;12.77;;
22070;SDS011;11200;51.488;6.668;2022-12-08T06:36:17;14.88;;;13.18;;
22070;SDS011;11200;51.488;6.668;2022-12-08T06:38:44;14.48;;;12.57;;
22070;SDS011;11200;51.488;6.668;2022-12-08T06:41:10;16.35;;;13.07;;
22070;SDS011;11200;51.488;6.668;2022-12-08T06:43:37;15.23;;;13.40;;
22070;SDS011;11200;51.488;6.668;2022-12-08T06:46:04;14.48;;;12.52;;
22070;SDS011;11200;51.488;6.668;2022-12-08T06:48:31;15.95;;;13.52;;
22070;SDS011;11200;51.488;6.668;2022-12-08T06:51:03;15.43;;;12.88;;
22070;SDS011;11200;51.488;6.668;2022-12-08T06:53:42;14.95;;;12.85;;
22070;SDS011;11200;51.488;6.668;2022-12-08T06:56:11;16.92;;;13.32;;
22070;SDS011;11200;51.488;6.668;2022-12-08T06:58:38;14.05;;;12.52;;
22070;SDS011;11200;51.488;6.668;2022-12-08T07:01:04;15.10;;;12.75;;
22070;SDS011;11200;51.488;6.668;2022-12-08T07:03:31;14.93;;;12.60;;
22070;SDS011;11200;51.488;6.668;2022-12-08T07:05:57;16.80;;;13.65;;
22070;SDS011;11200;51.488;6.668;2022-12-08T07:08:30;15.00;;;12.57;;
22070;SDS011;11200;51.488;6.668;2022-12-08T07:10:57;14.73;;;12.63;;
22070;SDS011;11200;51.488;6.668;2022-12-08T07:13:23;15.40;;;12.38;;
22070;SDS011;11200;51.488;6.668;2022-12-08T07:15:48;15.77;;;12.40;;
22070;SDS011;11200;51.488;6.668;2022-12-08T07:18:14;14.75;;;12.85;;
22070;SDS011;11200;51.488;6.668;2022-12-08T07:20:39;15.25;;;12.52;;
22070;SDS011;11200;51.488;6.668;2022-12-08T07:23:05;14.52;;;12.07;;
22070;SDS011;11200;51.488;6.668;2022-12-08T07:25:31;13.93;;;11.98;;
22070;SDS011;11200;51.488;6.668;2022-12-08T07:27:56;14.90;;;12.35;;
22070;SDS011;11200;51.488;6.668;2022-12-08T07:30:22;14.05;;;12.07;;
22070;SDS011;11200;51.488;6.668;2022-12-08T07:32:47;15.23;;;12.02;;
22070;SDS011;11200;51.488;6.668;2022-12-08T07:35:13;14.07;;;11.63;;
22070;SDS011;11200;51.488;6.668;2022-12-08T07:37:39;14.77;;;11.98;;
22070;SDS011;11200;51.488;6.668;2022-12-08T07:40:05;13.75;;;11.70;;
22070;SDS011;11200;51.488;6.668;2022-12-08T07:42:31;13.35;;;11.82;;
22070;SDS011;11200;51.488;6.668;2022-12-08T07:44:57;14.15;;;10.98;;
22070;SDS011;11200;51.488;6.668;2022-12-08T07:47:22;13.57;;;11.50;;
22070;SDS011;11200;51.488;6.668;2022-12-08T07:49:48;13.90;;;11.38;;
22070;SDS011;11200;51.488;6.668;2022-12-08T07:52:17;13.48;;;11.23;;
22070;SDS011;11200;51.488;6.668;2022-12-08T07:54:42;13.02;;;10.82;;
22070;SDS011;11200;51.488;6.668;2022-12-08T07:57:08;12.88;;;11.15;;
22070;SDS011;11200;51.488;6.668;2022-12-08T07:59:36;12.82;;;10.43;;
22070;SDS011;11200;51.488;6.668;2022-12-08T08:02:03;11.60;;;10.00;;
22070;SDS011;11200;51.488;6.668;2022-12-08T08:04:29;11.75;;;10.48;;
22070;SDS011;11200;51.488;6.668;2022-12-08T08:06:55;12.10;;;10.35;;
22070;SDS011;11200;51.488;6.668;2022-12-08T08:09:20;11.77;;;9.88;;
22070;SDS011;11200;51.488;6.668;2022-12-08T08:11:46;11.10;;;9.77;;
22070;SDS011;11200;51.488;6.668;2022-12-08T08:14:18;10.68;;;9.57;;
22070;SDS011;11200;51.488;6.668;2022-12-08T08:16:44;11.50;;;9.82;;
22070;SDS011;11200;51.488;6.668;2022-12-08T08:19:13;11.23;;;9.98;;
22070;SDS011;11200;51.488;6.668;2022-12-08T08:21:43;11.77;;;9.88;;
22070;SDS011;11200;51.488;6.668;2022-12-08T08:24:08;11.57;;;10.15;;
22070;SDS011;11200;51.488;6.668;2022-12-08T08:26:37;11.93;;;9.85;;
22070;SDS011;11200;51.488;6.668;2022-12-08T08:29:03;11.32;;;9.32;;
22070;SDS011;11200;51.488;6.668;2022-12-08T08:31:46;11.23;;;9.82;;
22070;SDS011;11200;51.488;6.668;2022-12-08T08:34:12;11.60;;;9.82;;
22070;SDS011;11200;51.488;6.668;2022-12-08T08:36:38;11.20;;;9.07;;
22070;SDS011;11200;51.488;6.668;2022-12-08T08:39:04;10.20;;;9.00;;
22070;SDS011;11200;51.488;6.668;2022-12-08T08:41:29;10.18;;;8.80;;
22070;SDS011;11200;51.488;6.668;2022-12-08T08:43:55;10.75;;;9.63;;
22070;SDS011;11200;51.488;6.668;2022-12-08T08:46:26;9.40;;;8.45;;
22070;SDS011;11200;51.488;6.668;2022-12-08T08:48:51;10.77;;;8.77;;
22070;SDS011;11200;51.488;6.668;2022-12-08T08:51:17;9.63;;;8.32;;
22070;SDS011;11200;51.488;6.668;2022-12-08T08:53:42;9.98;;;8.70;;
22070;SDS011;11200;51.488;6.668;2022-12-08T08:56:12;10.25;;;8.52;;
22070;SDS011;11200;51.488;6.668;2022-12-08T08:58:39;9.43;;;8.27;;
22070;SDS011;11200;51.488;6.668;2022-12-08T09:01:05;9.90;;;8.27;;
22070;SDS011;11200;51.488;6.668;2022-12-08T09:03:30;11.48;;;8.75;;
22070;SDS011;11200;51.488;6.668;2022-12-08T09:05:56;10.50;;;8.82;;
22070;SDS011;11200;51.488;6.668;2022-12-08T09:08:22;10.15;;;8.68;;
22070;SDS011;11200;51.488;6.668;2022-12-08T09:10:47;9.65;;;8.48;;
22070;SDS011;11200;51.488;6.668;2022-12-08T09:13:13;10.00;;;8.88;;
22070;SDS011;11200;51.488;6.668;2022-12-08T09:15:39;10.25;;;8.93;;
22070;SDS011;11200;51.488;6.668;2022-12-08T09:18:05;9.82;;;8.60;;
22070;SDS011;11200;51.488;6.668;2022-12-08T09:20:31;10.18;;;8.68;;
22070;SDS011;11200;51.488;6.668;2022-12-08T09:22:58;10.35;;;9.25;;
22070;SDS011;11200;51.488;6.668;2022-12-08T09:25:26;12.40;;;9.63;;
22070;SDS011;11200;51.488;6.668;2022-12-08T09:27:55;10.55;;;9.20;;
22070;SDS011;11200;51.488;6.668;2022-12-08T09:30:20;12.25;;;9.98;;
22070;SDS011;11200;51.488;6.668;2022-12-08T09:32:46;11.63;;;9.85;;
22070;SDS011;11200;51.488;6.668;2022-12-08T09:35:14;12.93;;;9.85;;
22070;SDS011;11200;51.488;6.668;2022-12-08T09:37:39;11.90;;;9.90;;
22070;SDS011;11200;51.488;6.668;2022-12-08T09:40:05;11.50;;;9.95;;
22070;SDS011;11200;51.488;6.668;2022-12-08T09:42:34;12.75;;;10.82;;
22070;SDS011;11200;51.488;6.668;2022-12-08T09:45:11;11.75;;;10.20;;
22070;SDS011;11200;51.488;6.668;2022-12-08T09:50:35;13.77;;;11.50;;
22070;SDS011;11200;51.488;6.668;2022-12-08T09:53:31;14.30;;;11.30;;
22070;SDS011;11200;51.488;6.668;2022-12-08T09:58:50;13.32;;;11.20;;
22070;SDS011;11200;51.488;6.668;2022-12-08T10:01:26;13.88;;;12.02;;
22070;SDS011;11200;51.488;6.668;2022-12-08T10:03:54;13.57;;;11.88;;
22070;SDS011;11200;51.488;6.668;2022-12-08T10:11:50;13.25;;;11.63;;
22070;SDS011;11200;51.488;6.668;2022-12-08T10:14:30;14.10;;;12.20;;
22070;SDS011;11200;51.488;6.668;2022-12-08T10:20:01;12.60;;;11.30;;
22070;SDS011;11200;51.488;6.668;2022-12-08T10:22:39;13.52;;;11.90;;
22070;SDS011;11200;51.488;6.668;2022-12-08T10:25:14;14.23;;;11.48;;
22070;SDS011;11200;51.488;6.668;2022-12-08T10:27:47;12.32;;;11.02;;
22070;SDS011;11200;51.488;6.668;2022-12-08T10:30:16;14.00;;;11.85;;
22070;SDS011;11200;51.488;6.668;2022-12-08T10:32:44;13.82;;;11.95;;
22070;SDS011;11200;51.488;6.668;2022-12-08T10:35:17;12.70;;;11.35;;
22070;SDS011;11200;51.488;6.668;2022-12-08T10:38:02;13.07;;;11.50;;
22070;SDS011;11200;51.488;6.668;2022-12-08T10:40:39;14.57;;;12.13;;
22070;SDS011;11200;51.488;6.668;2022-12-08T10:43:11;15.70;;;12.15;;
22070;SDS011;11200;51.488;6.668;2022-12-08T10:45:44;12.93;;;11.60;;
22070;SDS011;11200;51.488;6.668;2022-12-08T10:48:14;13.90;;;12.50;;
22070;SDS011;11200;51.488;6.668;2022-12-08T10:55:51;13.75;;;12.35;;
22070;SDS011;11200;51.488;6.668;2022-12-08T10:58:32;14.57;;;12.65;;
22070;SDS011;11200;51.488;6.668;2022-12-08T11:01:10;14.00;;;12.57;;
22070;SDS011;11200;51.488;6.668;2022-12-08T11:11:46;14.27;;;12.77;;
22070;SDS011;11200;51.488;6.668;2022-12-08T11:17:07;13.93;;;12.43;;
22070;SDS011;11200;51.488;6.668;2022-12-08T11:19:36;16.00;;;14.30;;
22070;SDS011;11200;51.488;6.668;2022-12-08T11:25:24;14.48;;;12.70;;
22070;SDS011;11200;51.488;6.668;2022-12-08T11:27:52;14.57;;;12.43;;
22070;SDS011;11200;51.488;6.668;2022-12-08T11:30:24;14.50;;;12.93;;
22070;SDS011;11200;51.488;6.668;2022-12-08T11:35:43;13.30;;;11.90;;
22070;SDS011;11200;51.488;6.668;2022-12-08T11:38:20;13.18;;;11.77;;
22070;SDS011;11200;51.488;6.668;2022-12-08T11:40:49;14.20;;;12.65;;
22070;SDS011;11200;51.488;6.668;2022-12-08T11:46:02;11.77;;;10.52;;
22070;SDS011;11200;51.488;6.668;2022-12-08T11:51:07;10.65;;;9.55;;
22070;SDS011;11200;51.488;6.668;2022-12-08T11:56:31;11.05;;;9.95;;
22070;SDS011;11200;51.488;6.668;2022-12-08T11:59:01;10.85;;;9.75;;
22070;SDS011;11200;51.488;6.668;2022-12-08T12:01:34;10.77;;;9.68;;
22070;SDS011;11200;51.488;6.668;2022-12-08T12:10:39;10.68;;;9.55;;
22070;SDS011;11200;51.488;6.668;2022-12-08T12:19:00;10.35;;;9.23;;
22070;SDS011;11200;51.488;6.668;2022-12-08T12:21:39;9.30;;;8.40;;
22070;SDS011;11200;51.488;6.668;2022-12-08T12:24:09;10.50;;;9.40;;
22070;SDS011;11200;51.488;6.668;2022-12-08T12:27:00;9.30;;;8.40;;
22070;SDS011;11200;51.488;6.668;2022-12-08T12:29:34;9.20;;;8.10;;
22070;SDS011;11200;51.488;6.668;2022-12-08T12:32:06;9.65;;;8.35;;
22070;SDS011;11200;51.488;6.668;2022-12-08T12:34:34;9.23;;;8.32;;
22070;SDS011;11200;51.488;6.668;2022-12-08T12:37:09;8.77;;;7.88;;
22070;SDS011;11200;51.488;6.668;2022-12-08T12:39:54;8.52;;;7.63;;
22070;SDS011;11200;51.488;6.668;2022-12-08T12:42:41;8.80;;;7.53;;
22070;SDS011;11200;51.488;6.668;2022-12-08T12:58:21;7.35;;;6.65;;
22070;SDS011;11200;51.488;6.668;2022-12-08T13:03:48;7.53;;;6.82;;
22070;SDS011;11200;51.488;6.668;2022-12-08T13:06:34;6.82;;;6.03;;
22070;SDS011;11200;51.488;6.668;2022-12-08T13:09:21;7.05;;;6.35;;
22070;SDS011;11200;51.488;6.668;2022-12-08T13:12:00;7.43;;;6.70;;
22070;SDS011;11200;51.488;6.668;2022-12-08T13:14:36;7.25;;;6.55;;
22070;SDS011;11200;51.488;6.668;2022-12-08T13:17:10;7.28;;;6.55;;
22070;SDS011;11200;51.488;6.668;2022-12-08T13:19:38;6.38;;;5.78;;
22070;SDS011;11200;51.488;6.668;2022-12-08T13:22:45;6.43;;;5.80;;
22070;SDS011;11200;51.488;6.668;2022-12-08T13:33:18;7.22;;;6.53;;
22070;SDS011;11200;51.488;6.668;2022-12-08T13:35:48;6.93;;;6.32;;
22070;SDS011;11200;51.488;6.668;2022-12-08T13:38:19;6.90;;;6.20;;
22070;SDS011;11200;51.488;6.668;2022-12-08T13:40:49;6.68;;;6.07;;
22070;SDS011;11200;51.488;6.668;2022-12-08T13:46:08;6.68;;;6.03;;
22070;SDS011;11200;51.488;6.668;2022-12-08T13:48:49;7.28;;;6.53;;
22070;SDS011;11200;51.488;6.668;2022-12-08T13:51:22;7.22;;;6.53;;
22070;SDS011;11200;51.488;6.668;2022-12-08T13:54:04;6.95;;;6.25;;
22070;SDS011;11200;51.488;6.668;2022-12-08T13:56:39;9.00;;;6.80;;
22070;SDS011;11200;51.488;6.668;2022-12-08T13:59:07;6.95;;;6.28;;
22070;SDS011;11200;51.488;6.668;2022-12-08T14:01:48;7.60;;;6.53;;
22070;SDS011;11200;51.488;6.668;2022-12-08T14:04:15;7.63;;;6.90;;
22070;SDS011;11200;51.488;6.668;2022-12-08T14:06:47;7.35;;;6.65;;
22070;SDS011;11200;51.488;6.668;2022-12-08T14:09:20;6.90;;;6.20;;
22070;SDS011;11200;51.488;6.668;2022-12-08T14:11:55;6.93;;;6.28;;
22070;SDS011;11200;51.488;6.668;2022-12-08T14:16:57;6.85;;;6.22;;
22070;SDS011;11200;51.488;6.668;2022-12-08T14:19:26;7.45;;;6.75;;
22070;SDS011;11200;51.488;6.668;2022-12-08T14:22:01;7.32;;;6.63;;
22070;SDS011;11200;51.488;6.668;2022-12-08T14:24:28;6.60;;;6.00;;
22070;SDS011;11200;51.488;6.668;2022-12-08T14:26:57;7.13;;;6.30;;
22070;SDS011;11200;51.488;6.668;2022-12-08T14:32:18;6.85;;;6.22;;
22070;SDS011;11200;51.488;6.668;2022-12-08T14:34:57;7.38;;;6.53;;
22070;SDS011;11200;51.488;6.668;2022-12-08T14:37:26;6.95;;;6.22;;
22070;SDS011;11200;51.488;6.668;2022-12-08T14:39:59;6.68;;;6.05;;
22070;SDS011;11200;51.488;6.668;2022-12-08T14:42:28;6.68;;;6.07;;
22070;SDS011;11200;51.488;6.668;2022-12-08T14:44:54;6.45;;;5.70;;
22070;SDS011;11200;51.488;6.668;2022-12-08T14:47:28;6.40;;;5.75;;
22070;SDS011;11200;51.488;6.668;2022-12-08T14:49:55;7.68;;;6.28;;
22070;SDS011;11200;51.488;6.668;2022-12-08T14:52:21;6.85;;;6.15;;
22070;SDS011;11200;51.488;6.668;2022-12-08T14:54:48;6.57;;;5.80;;
22070;SDS011;11200;51.488;6.668;2022-12-08T14:57:15;6.97;;;6.28;;
22070;SDS011;11200;51.488;6.668;2022-12-08T14:59:41;6.78;;;6.07;;
22070;SDS011;11200;51.488;6.668;2022-12-08T15:04:47;6.90;;;6.20;;
22070;SDS011;11200;51.488;6.668;2022-12-08T15:07:20;6.55;;;5.88;;
22070;SDS011;11200;51.488;6.668;2022-12-08T15:09:48;7.00;;;6.15;;
22070;SDS011;11200;51.488;6.668;2022-12-08T15:12:30;6.47;;;5.88;;
22070;SDS011;11200;51.488;6.668;2022-12-08T15:20:05;6.45;;;5.85;;
22070;SDS011;11200;51.488;6.668;2022-12-08T15:22:49;7.28;;;6.10;;
22070;SDS011;11200;51.488;6.668;2022-12-08T15:25:14;7.30;;;6.60;;
22070;SDS011;11200;51.488;6.668;2022-12-08T15:27:40;6.90;;;6.28;;
22070;SDS011;11200;51.488;6.668;2022-12-08T15:30:10;6.80;;;6.10;;
22070;SDS011;11200;51.488;6.668;2022-12-08T15:32:40;6.90;;;6.20;;
22070;SDS011;11200;51.488;6.668;2022-12-08T15:35:06;7.00;;;6.30;;
22070;SDS011;11200;51.488;6.668;2022-12-08T15:37:32;6.85;;;5.88;;
22070;SDS011;11200;51.488;6.668;2022-12-08T15:39:58;6.95;;;6.25;;
22070;SDS011;11200;51.488;6.668;2022-12-08T15:42:23;6.70;;;6.07;;
22070;SDS011;11200;51.488;6.668;2022-12-08T15:44:49;7.50;;;6.70;;
22070;SDS011;11200;51.488;6.668;2022-12-08T15:47:15;7.78;;;6.97;;
22070;SDS011;11200;51.488;6.668;2022-12-08T15:49:43;7.68;;;6.88;;
22070;SDS011;11200;51.488;6.668;2022-12-08T15:52:14;7.40;;;6.57;;
22070;SDS011;11200;51.488;6.668;2022-12-08T15:54:44;8.07;;;7.03;;
22070;SDS011;11200;51.488;6.668;2022-12-08T15:57:23;7.53;;;6.70;;
22070;SDS011;11200;51.488;6.668;2022-12-08T15:59:51;7.10;;;6.40;;
22070;SDS011;11200;51.488;6.668;2022-12-08T16:02:17;8.30;;;7.13;;
22070;SDS011;11200;51.488;6.668;2022-12-08T16:04:43;8.10;;;7.28;;
22070;SDS011;11200;51.488;6.668;2022-12-08T16:07:20;7.57;;;6.78;;
22070;SDS011;11200;51.488;6.668;2022-12-08T16:09:49;8.63;;;7.53;;
22070;SDS011;11200;51.488;6.668;2022-12-08T16:12:15;7.80;;;7.00;;
22070;SDS011;11200;51.488;6.668;2022-12-08T16:15:08;8.23;;;7.43;;
22070;SDS011;11200;51.488;6.668;2022-12-08T16:17:34;8.52;;;7.72;;
22070;SDS011;11200;51.488;6.668;2022-12-08T16:20:00;9.07;;;8.18;;
22070;SDS011;11200;51.488;6.668;2022-12-08T16:22:29;9.20;;;8.20;;
22070;SDS011;11200;51.488;6.668;2022-12-08T16:24:56;8.75;;;7.85;;
22070;SDS011;11200;51.488;6.668;2022-12-08T16:27:22;10.70;;;8.07;;
22070;SDS011;11200;51.488;6.668;2022-12-08T16:29:54;8.82;;;7.93;;
22070;SDS011;11200;51.488;6.668;2022-12-08T16:32:21;9.15;;;8.25;;
22070;SDS011;11200;51.488;6.668;2022-12-08T16:34:46;9.07;;;8.15;;
22070;SDS011;11200;51.488;6.668;2022-12-08T16:37:20;9.02;;;7.90;;
22070;SDS011;11200;51.488;6.668;2022-12-08T16:39:47;9.07;;;7.85;;
22070;SDS011;11200;51.488;6.668;2022-12-08T16:42:35;10.30;;;8.77;;
22070;SDS011;11200;51.488;6.668;2022-12-08T16:45:20;9.38;;;8.38;;
22070;SDS011;11200;51.488;6.668;2022-12-08T16:47:48;9.60;;;8.63;;
22070;SDS011;11200;51.488;6.668;2022-12-08T16:50:20;9.18;;;8.25;;
22070;SDS011;11200;51.488;6.668;2022-12-08T16:52:55;10.32;;;8.57;;